Time;durP1;ratioP1;P1;durP2;ratioP2;P2;SDS_P1;SDS_P2;PMS_P1;PMS_P2;Temp;Humidity;BMP_temperature;BMP_pressure;BME280_temperature;BME280_humidity;BME280_pressure;Samples;Min_cycle;Max_cycle;Signal;HPM_P1;HPM_P2
2022/03/12 00:00:50;;;;;;;12.55;5.05;;;6.80;81.40;;;;;;5026702;28;20046;-83
2022/03/12 00:03:16;;;;;;;12.43;5.55;;;6.00;80.10;;;;;;5005341;28;20052;-83
2022/03/12 00:05:52;;;;;;;11.23;4.95;;;6.10;79.40;;;;;;5006642;28;20042;-84
2022/03/12 00:08:45;;;;;;;12.27;5.45;;;6.70;80.70;;;;;;5020632;28;20440;-84
2022/03/12 00:11:26;;;;;;;12.00;5.30;;;6.00;80.60;;;;;;5023751;28;20042;-84
2022/03/12 00:13:54;;;;;;;12.60;5.65;;;6.00;80.50;;;;;;5024472;28;20037;-83
2022/03/12 00:16:25;;;;;;;10.75;5.20;;;6.70;81.10;;;;;;5023775;28;20033;-83
2022/03/12 00:19:01;;;;;;;12.35;5.10;;;6.00;80.60;;;;;;5019767;28;20029;-83
2022/03/12 00:21:28;;;;;;;14.20;5.07;;;6.40;80.70;;;;;;5024582;28;20053;-83
2022/03/12 00:23:56;;;;;;;11.10;4.68;;;7.00;80.00;;;;;;5009005;28;20033;-83
2022/03/12 00:26:23;;;;;;;11.00;5.05;;;6.10;79.50;;;;;;5006822;28;20048;-83
2022/03/12 00:28:52;;;;;;;11.82;5.20;;;7.20;81.30;;;;;;5006636;28;20115;-83
2022/03/12 00:31:18;;;;;;;12.70;5.45;;;6.90;80.50;;;;;;5019611;28;20059;-83
2022/03/12 00:33:44;;;;;;;12.32;5.50;;;5.90;80.60;;;;;;5009959;28;20505;-83
2022/03/12 00:36:11;;;;;;;12.02;5.57;;;5.90;80.40;;;;;;5005590;28;20056;-83
2022/03/12 00:38:37;;;;;;;11.90;5.22;;;5.90;79.60;;;;;;5008128;28;20041;-84
2022/03/12 00:41:05;;;;;;;14.55;5.53;;;6.30;80.10;;;;;;5045377;28;20037;-83
2022/03/12 00:43:31;;;;;;;11.10;5.35;;;6.80;80.90;;;;;;5056467;28;20436;-84
2022/03/12 00:45:57;;;;;;;15.38;5.47;;;5.90;82.50;;;;;;5008517;28;20112;-84
2022/03/12 00:48:23;;;;;;;11.85;5.40;;;6.00;82.90;;;;;;5008614;28;20134;-83
2022/03/12 00:50:49;;;;;;;11.02;5.07;;;5.80;84.20;;;;;;5014834;28;20437;-83
2022/03/12 00:53:14;;;;;;;11.65;5.55;;;6.50;85.60;;;;;;5028121;28;20123;-83
2022/03/12 00:55:41;;;;;;;12.20;5.60;;;5.80;86.70;;;;;;5041175;28;20044;-83
2022/03/12 00:58:06;;;;;;;11.52;5.05;;;6.00;87.70;;;;;;4997593;28;20045;-83
2022/03/12 01:00:34;;;;;;;10.75;5.25;;;5.70;89.40;;;;;;5036762;28;20053;-83
2022/03/12 01:03:01;;;;;;;15.38;5.45;;;5.70;90.50;;;;;;5029087;28;20045;-84
2022/03/12 01:05:48;;;;;;;10.65;5.20;;;6.60;91.80;;;;;;5041761;28;20075;-83
2022/03/12 01:08:15;;;;;;;11.07;5.32;;;5.60;92.40;;;;;;5041107;28;20499;-84
2022/03/12 01:10:42;;;;;;;13.50;5.70;;;5.60;92.50;;;;;;5008243;28;20486;-84
2022/03/12 01:13:08;;;;;;;12.25;6.00;;;5.60;93.00;;;;;;5008549;28;20505;-83
2022/03/12 01:15:34;;;;;;;11.38;5.88;;;7.20;93.50;;;;;;5040715;28;20095;-83
2022/03/12 01:18:01;;;;;;;13.52;5.72;;;5.70;93.20;;;;;;5038542;28;20638;-84
2022/03/12 01:20:28;;;;;;;11.68;5.50;;;5.60;93.40;;;;;;5031969;28;20094;-83
2022/03/12 01:22:54;;;;;;;10.63;5.20;;;5.60;93.50;;;;;;5031712;28;20044;-83
2022/03/12 01:25:20;;;;;;;14.13;6.00;;;5.50;94.00;;;;;;5033616;28;20060;-83
2022/03/12 01:27:46;;;;;;;16.08;6.07;;;5.50;94.10;;;;;;4996856;28;20040;-83
2022/03/12 01:30:12;;;;;;;13.48;5.45;;;5.10;94.60;;;;;;5032145;28;20097;-83
2022/03/12 01:32:38;;;;;;;11.45;5.72;;;5.50;94.70;;;;;;5016296;28;20115;-83
2022/03/12 01:35:05;;;;;;;12.23;5.82;;;5.50;94.70;;;;;;4998911;28;20078;-83
2022/03/12 01:37:32;;;;;;;12.48;5.47;;;5.50;94.80;;;;;;5027945;28;20064;-83
2022/03/12 01:39:58;;;;;;;11.32;5.70;;;5.50;93.90;;;;;;5025319;28;20501;-83
2022/03/12 01:42:27;;;;;;;11.55;5.75;;;5.50;94.60;;;;;;5013099;28;20052;-83
2022/03/12 01:44:53;;;;;;;11.55;5.28;;;5.50;94.30;;;;;;5043540;28;20433;-84
2022/03/12 01:47:20;;;;;;;13.85;6.05;;;5.50;95.00;;;;;;5028197;28;20533;-83
2022/03/12 01:49:48;;;;;;;12.52;5.47;;;5.50;95.00;;;;;;5033465;28;20540;-84
2022/03/12 01:52:15;;;;;;;11.43;5.45;;;5.50;94.90;;;;;;5027845;28;20040;-83
2022/03/12 01:54:42;;;;;;;13.50;5.60;;;6.40;94.70;;;;;;5020276;28;20558;-83
2022/03/12 01:57:09;;;;;;;12.80;5.85;;;6.60;95.50;;;;;;5036482;28;20101;-84
2022/03/12 01:59:36;;;;;;;11.70;5.63;;;6.50;95.60;;;;;;5022793;28;20569;-83
2022/03/12 02:02:03;;;;;;;17.98;6.28;;;6.80;95.70;;;;;;5029776;28;20048;-83
2022/03/12 02:04:29;;;;;;;11.95;5.90;;;4.60;94.90;;;;;;5050126;28;20401;-84
2022/03/12 02:07:00;;;;;;;13.80;5.70;;;5.50;95.00;;;;;;5010914;28;20040;-83
2022/03/12 02:09:26;;;;;;;11.32;5.55;;;5.80;94.80;;;;;;5026435;28;20034;-83
2022/03/12 02:11:53;;;;;;;11.13;5.40;;;5.50;95.30;;;;;;5021841;28;20406;-83
2022/03/12 02:14:22;;;;;;;11.27;5.60;;;5.50;95.50;;;;;;5045177;28;20040;-84
2022/03/12 02:16:49;;;;;;;12.43;5.88;;;7.00;96.00;;;;;;5027140;28;20033;-83
2022/03/12 02:19:17;;;;;;;12.82;5.75;;;5.50;95.50;;;;;;5025354;28;20045;-83
2022/03/12 02:22:13;;;;;;;11.38;5.28;;;5.50;95.90;;;;;;5042330;28;20041;-83
2022/03/12 02:24:39;;;;;;;11.55;5.35;;;5.90;95.60;;;;;;5025045;28;20045;-84
2022/03/12 02:27:10;;;;;;;14.40;5.85;;;6.20;96.30;;;;;;5043122;28;20043;-84
2022/03/12 02:29:36;;;;;;;11.23;5.57;;;5.50;95.40;;;;;;5045878;28;20123;-84
2022/03/12 02:32:10;;;;;;;11.32;5.57;;;6.00;95.70;;;;;;5012116;28;20071;-84
2022/03/12 02:34:42;;;;;;;11.90;6.00;;;5.50;95.30;;;;;;5043035;28;20041;-84
2022/03/12 02:37:09;;;;;;;11.48;5.32;;;5.60;94.90;;;;;;5028010;28;20041;-84
2022/03/12 02:39:37;;;;;;;11.10;5.28;;;5.50;95.30;;;;;;5041708;28;20032;-84
2022/03/12 02:42:05;;;;;;;14.52;6.20;;;5.50;95.80;;;;;;5042431;28;20036;-84
2022/03/12 02:44:31;;;;;;;13.52;5.75;;;5.50;95.80;;;;;;5029251;28;20037;-84
2022/03/12 02:47:19;;;;;;;11.35;5.43;;;6.50;96.50;;;;;;5026285;28;20115;-84
2022/03/12 02:49:53;;;;;;;12.75;5.85;;;5.50;95.90;;;;;;5043251;28;20041;-83
2022/03/12 02:52:21;;;;;;;10.20;5.10;;;5.50;95.60;;;;;;5040400;28;20041;-83
2022/03/12 02:54:49;;;;;;;11.50;5.35;;;6.20;95.40;;;;;;5026067;28;21528;-83
2022/03/12 02:57:15;;;;;;;12.35;5.55;;;6.50;95.80;;;;;;5042478;28;20036;-84
2022/03/12 02:59:43;;;;;;;11.50;5.53;;;6.80;95.90;;;;;;5025760;28;20052;-84
2022/03/12 03:02:10;;;;;;;13.55;5.65;;;5.60;95.90;;;;;;5038903;28;20041;-84
2022/03/12 03:04:40;;;;;;;11.20;5.55;;;5.70;96.00;;;;;;5031521;28;20040;-84
2022/03/12 03:07:07;;;;;;;12.63;5.90;;;5.60;95.80;;;;;;5025153;28;20493;-83
2022/03/12 03:09:33;;;;;;;10.93;5.30;;;5.40;95.90;;;;;;5029943;28;20038;-84
2022/03/12 03:12:03;;;;;;;12.27;5.65;;;6.30;95.90;;;;;;5023546;28;20382;-84
2022/03/12 03:14:31;;;;;;;13.55;5.55;;;5.80;95.50;;;;;;5029287;28;20037;-84
2022/03/12 03:17:00;;;;;;;12.20;5.82;;;7.30;96.10;;;;;;5027354;28;20033;-84
2022/03/12 03:19:27;;;;;;;11.38;5.60;;;5.50;95.60;;;;;;5028795;28;20036;-84
2022/03/12 03:21:54;;;;;;;12.43;5.22;;;6.30;96.40;;;;;;5043285;28;20028;-83
2022/03/12 03:24:21;;;;;;;12.85;5.93;;;5.40;96.00;;;;;;5026598;28;20109;-84
2022/03/12 03:26:47;;;;;;;12.55;5.65;;;6.60;96.10;;;;;;5021038;28;20041;-83
2022/03/12 03:29:13;;;;;;;13.07;5.25;;;6.10;95.80;;;;;;5045787;28;20037;-83
2022/03/12 03:31:39;;;;;;;11.25;5.80;;;6.70;95.80;;;;;;5027247;28;20434;-83
2022/03/12 03:34:05;;;;;;;11.75;5.25;;;5.90;95.10;;;;;;5025319;28;20051;-84
2022/03/12 03:36:31;;;;;;;11.13;5.07;;;6.60;95.20;;;;;;5025274;28;20547;-83
2022/03/12 03:38:57;;;;;;;12.15;5.60;;;5.40;95.00;;;;;;5026358;28;20048;-83
2022/03/12 03:41:23;;;;;;;11.52;5.40;;;5.40;94.80;;;;;;5024229;28;20086;-84
2022/03/12 03:43:49;;;;;;;11.82;5.07;;;5.60;95.10;;;;;;5022722;28;20029;-84
2022/03/12 03:46:23;;;;;;;11.73;5.50;;;6.50;95.50;;;;;;5024527;28;20045;-84
2022/03/12 03:48:52;;;;;;;11.25;5.25;;;5.40;95.60;;;;;;5044404;28;20425;-84
2022/03/12 03:51:22;;;;;;;13.77;5.65;;;5.60;95.90;;;;;;5043050;28;20094;-83
2022/03/12 03:53:48;;;;;;;13.73;5.65;;;6.90;96.20;;;;;;5025982;28;20051;-83
2022/03/12 03:56:15;;;;;;;11.48;5.40;;;5.30;95.80;;;;;;5027988;28;20048;-83
2022/03/12 03:58:41;;;;;;;11.90;5.32;;;5.30;96.30;;;;;;5021334;28;20064;-84
2022/03/12 04:01:12;;;;;;;11.57;5.40;;;6.20;96.90;;;;;;5009234;28;20106;-84
2022/03/12 04:03:42;;;;;;;11.45;5.45;;;5.30;97.00;;;;;;5041337;28;20116;-83
2022/03/12 04:06:08;;;;;;;12.50;5.50;;;6.90;97.30;;;;;;5027689;28;20412;-83
2022/03/12 04:08:35;;;;;;;12.63;5.80;;;6.60;97.50;;;;;;5040552;28;20037;-83
2022/03/12 04:11:05;;;;;;;13.40;5.75;;;5.20;97.50;;;;;;5007870;28;20097;-84
2022/03/12 04:13:33;;;;;;;12.20;5.60;;;5.70;97.80;;;;;;5024966;28;20039;-84
2022/03/12 04:16:00;;;;;;;12.05;5.50;;;6.80;98.50;;;;;;5044156;28;20089;-83
2022/03/12 04:18:27;;;;;;;10.00;5.00;;;5.20;98.50;;;;;;5022433;28;20723;-84
2022/03/12 04:20:53;;;;;;;10.90;5.60;;;5.30;98.50;;;;;;5009345;28;20044;-84
2022/03/12 04:23:23;;;;;;;12.00;5.07;;;5.10;98.60;;;;;;5028656;28;20029;-83
2022/03/12 04:25:51;;;;;;;12.02;5.43;;;5.10;98.80;;;;;;5027858;28;20086;-83
2022/03/12 04:28:18;;;;;;;13.25;5.57;;;5.90;99.20;;;;;;5024282;28;20056;-83
2022/03/12 04:30:44;;;;;;;13.02;5.20;;;6.20;99.20;;;;;;5025695;28;20067;-84
2022/03/12 04:33:11;;;;;;;11.32;5.13;;;5.00;98.90;;;;;;5029302;28;20064;-84
2022/03/12 04:35:38;;;;;;;12.20;5.60;;;5.30;99.20;;;;;;5012613;28;20098;-83
2022/03/12 04:38:05;;;;;;;12.25;5.25;;;6.20;99.50;;;;;;5043504;28;20076;-85
2022/03/12 04:40:30;;;;;;;11.70;5.22;;;5.00;99.70;;;;;;5028156;28;20086;-84
2022/03/12 04:42:56;;;;;;;11.60;5.45;;;5.00;99.90;;;;;;5029528;28;20049;-83
2022/03/12 04:45:25;;;;;;;10.45;5.00;;;4.90;99.90;;;;;;5013848;28;20125;-83
2022/03/12 04:47:54;;;;;;;12.18;5.47;;;5.00;99.90;;;;;;5043513;28;20037;-84
2022/03/12 04:50:21;;;;;;;11.57;5.70;;;4.90;99.90;;;;;;5030401;28;20619;-83
2022/03/12 04:52:49;;;;;;;11.90;5.45;;;4.90;99.90;;;;;;5026686;28;20036;-83
2022/03/12 04:55:19;;;;;;;11.13;5.30;;;6.30;99.90;;;;;;5024979;28;20120;-83
2022/03/12 04:57:46;;;;;;;10.85;5.10;;;6.20;99.90;;;;;;5037603;28;20084;-83
2022/03/12 05:00:31;;;;;;;11.88;5.40;;;5.50;99.90;;;;;;5026666;28;20049;-83
2022/03/12 05:03:19;;;;;;;12.15;5.53;;;4.90;99.90;;;;;;5027069;28;20044;-83
2022/03/12 05:05:50;;;;;;;15.73;5.45;;;5.30;99.90;;;;;;5033404;28;20043;-83
2022/03/12 05:08:22;;;;;;;12.15;5.70;;;4.80;99.90;;;;;;5030414;28;20598;-84
2022/03/12 05:10:51;;;;;;;10.50;4.90;;;4.80;99.90;;;;;;5027172;28;20032;-83
2022/03/12 05:13:24;;;;;;;10.55;5.07;;;5.80;99.90;;;;;;5033243;28;20029;-84
2022/03/12 05:16:02;;;;;;;10.77;5.28;;;4.80;99.90;;;;;;5026740;28;20029;-84
2022/03/12 05:18:28;;;;;;;12.20;5.15;;;4.70;99.90;;;;;;5030113;28;20040;-84
2022/03/12 05:20:54;;;;;;;12.38;5.65;;;4.70;99.90;;;;;;5023765;28;20409;-84
2022/03/12 05:23:21;;;;;;;12.20;5.40;;;5.80;99.90;;;;;;5043961;28;20610;-83
2022/03/12 05:25:48;;;;;;;12.18;5.47;;;4.60;99.90;;;;;;5030719;28;20060;-83
2022/03/12 05:28:29;;;;;;;12.00;5.55;;;5.60;99.90;;;;;;5028670;28;20036;-83
2022/03/12 05:30:58;;;;;;;10.95;5.43;;;4.60;99.90;;;;;;5027447;28;20037;-83
2022/03/12 05:33:24;;;;;;;11.00;5.18;;;6.10;99.90;;;;;;5042908;28;20037;-83
2022/03/12 05:35:56;;;;;;;11.25;5.10;;;5.70;99.90;;;;;;5041115;28;20041;-83
2022/03/12 05:38:23;;;;;;;10.40;5.05;;;5.40;99.90;;;;;;5029529;28;20063;-93
2022/03/12 05:40:50;;;;;;;11.75;5.35;;;4.50;99.90;;;;;;5039050;28;20040;-94
2022/03/12 05:43:17;;;;;;;11.10;4.93;;;4.50;99.90;;;;;;5037018;28;20069;-94
2022/03/12 05:45:50;;;;;;;12.80;5.57;;;4.50;99.90;;;;;;5040536;28;20044;-94
2022/03/12 05:48:17;;;;;;;10.85;5.20;;;4.40;99.90;;;;;;5047899;28;20044;-92
2022/03/12 05:50:44;;;;;;;11.38;5.20;;;4.40;99.90;;;;;;5045637;28;20485;-92
2022/03/12 05:53:10;;;;;;;12.77;5.78;;;4.40;99.90;;;;;;5053687;28;20098;-93
2022/03/12 05:55:40;;;;;;;10.48;5.03;;;4.40;99.90;;;;;;5031235;28;20041;-92
2022/03/12 05:58:07;;;;;;;10.80;5.13;;;5.90;99.90;;;;;;5060274;28;20045;-93
2022/03/12 06:00:33;;;;;;;10.38;5.10;;;5.70;99.90;;;;;;5054082;28;20139;-92
2022/03/12 06:03:01;;;;;;;11.00;4.90;;;4.40;99.90;;;;;;5029875;28;20123;-92
2022/03/12 06:05:27;;;;;;;11.43;5.18;;;5.60;99.90;;;;;;5031022;28;20033;-93
2022/03/12 06:07:54;;;;;;;11.85;5.47;;;4.30;99.90;;;;;;5029338;28;20090;-93
2022/03/12 06:10:21;;;;;;;12.10;5.40;;;4.40;99.90;;;;;;5025369;28;20111;-93
2022/03/12 06:12:50;;;;;;;10.27;5.07;;;4.40;99.90;;;;;;5048817;28;20064;-93
2022/03/12 06:15:18;;;;;;;11.00;5.25;;;4.40;99.90;;;;;;5030273;28;20036;-93
2022/03/12 06:17:45;;;;;;;11.38;4.97;;;6.10;99.90;;;;;;5029756;28;20038;-93
2022/03/12 06:20:12;;;;;;;14.45;5.40;;;4.30;99.90;;;;;;5040660;28;20051;-93
2022/03/12 06:22:39;;;;;;;10.68;5.07;;;4.40;99.90;;;;;;5053264;28;20044;-93
2022/03/12 06:25:07;;;;;;;11.88;5.03;;;4.40;99.90;;;;;;5029997;28;20724;-92
2022/03/12 06:27:33;;;;;;;11.20;5.28;;;4.40;99.90;;;;;;5033828;28;20099;-92
2022/03/12 06:29:59;;;;;;;12.43;5.05;;;4.40;99.90;;;;;;5038484;28;20534;-92
2022/03/12 06:32:25;;;;;;;11.70;5.00;;;4.40;99.90;;;;;;5024150;28;20093;-92
2022/03/12 06:34:50;;;;;;;12.65;5.82;;;4.90;99.90;;;;;;5030841;28;20041;-93
2022/03/12 06:37:16;;;;;;;12.10;5.53;;;5.60;99.90;;;;;;5035462;28;20122;-93
2022/03/12 06:39:42;;;;;;;13.15;5.32;;;6.20;99.90;;;;;;5030851;28;20050;-92
2022/03/12 06:42:08;;;;;;;13.27;5.10;;;4.50;99.90;;;;;;5022542;28;20032;-94
2022/03/12 06:44:36;;;;;;;11.68;5.25;;;4.50;99.90;;;;;;5029070;28;20045;-94
2022/03/12 06:47:07;;;;;;;10.68;5.28;;;5.60;99.90;;;;;;5050883;28;20085;-93
2022/03/12 06:49:34;;;;;;;12.32;5.30;;;4.60;99.90;;;;;;5055975;28;20067;-93
2022/03/12 06:51:59;;;;;;;11.60;5.47;;;4.50;99.90;;;;;;5018868;28;20409;-93
2022/03/12 06:54:25;;;;;;;12.48;5.55;;;4.60;99.90;;;;;;5051577;28;20036;-93
2022/03/12 06:56:53;;;;;;;11.05;5.22;;;4.70;99.90;;;;;;5034901;28;20036;-93
2022/03/12 06:59:19;;;;;;;13.90;5.88;;;4.60;99.90;;;;;;5017971;28;20059;-93
2022/03/12 07:01:44;;;;;;;10.93;5.22;;;5.40;99.90;;;;;;5033151;28;20044;-92
2022/03/12 07:04:11;;;;;;;10.48;5.03;;;4.70;99.90;;;;;;5019382;28;20041;-93
2022/03/12 07:06:37;;;;;;;12.05;4.63;;;5.60;99.90;;;;;;5030651;28;20043;-95
2022/03/12 07:09:03;;;;;;;12.73;5.07;;;6.00;99.90;;;;;;5039196;28;20040;-96
2022/03/12 07:11:31;;;;;;;11.63;5.28;;;5.80;99.90;;;;;;5043219;28;20036;-94
2022/03/12 07:13:58;;;;;;;12.25;5.13;;;6.50;99.90;;;;;;5054337;28;20477;-93
2022/03/12 07:16:24;;;;;;;12.48;4.90;;;6.30;99.90;;;;;;5052330;28;20036;-94
2022/03/12 07:18:50;;;;;;;11.90;5.45;;;4.90;99.90;;;;;;5026995;28;20044;-93
2022/03/12 07:21:15;;;;;;;15.82;5.70;;;5.00;99.90;;;;;;5015573;28;20044;-92
2022/03/12 07:23:41;;;;;;;11.77;5.70;;;5.60;99.90;;;;;;5047502;28;20044;-93
2022/03/12 07:26:08;;;;;;;14.05;5.63;;;5.10;99.90;;;;;;5035644;28;20120;-93
2022/03/12 07:28:34;;;;;;;12.90;6.20;;;5.60;99.90;;;;;;5035659;28;21544;-93
2022/03/12 07:31:00;;;;;;;16.33;5.57;;;6.30;99.90;;;;;;5031664;28;20056;-94
2022/03/12 07:33:28;;;;;;;11.95;5.60;;;6.70;99.90;;;;;;5035858;28;20101;-92
2022/03/12 07:35:54;;;;;;;12.52;5.85;;;6.60;99.90;;;;;;5028246;28;20091;-93
2022/03/12 07:38:19;;;;;;;13.90;5.90;;;6.80;99.90;;;;;;5038674;28;20032;-94
2022/03/12 07:40:45;;;;;;;13.65;5.75;;;5.20;99.90;;;;;;5013417;28;20040;-94
2022/03/12 07:43:11;;;;;;;12.38;5.32;;;5.30;99.90;;;;;;5055604;28;20089;-94
2022/03/12 07:45:38;;;;;;;11.65;5.30;;;6.00;99.90;;;;;;5051699;28;20070;-95
2022/03/12 07:48:05;;;;;;;16.58;6.28;;;5.30;99.90;;;;;;5017481;28;20033;-94
2022/03/12 07:50:31;;;;;;;12.85;6.03;;;5.40;99.90;;;;;;5035491;28;20036;-94
2022/03/12 07:52:57;;;;;;;13.02;5.75;;;5.50;99.90;;;;;;5055716;28;20084;-94
2022/03/12 07:55:23;;;;;;;14.55;6.35;;;6.70;99.90;;;;;;5020963;28;20480;-94
2022/03/12 07:57:49;;;;;;;12.60;5.75;;;7.30;99.90;;;;;;5039049;28;20033;-94
2022/03/12 08:00:16;;;;;;;14.10;5.70;;;5.80;99.90;;;;;;5019358;28;20041;-93
2022/03/12 08:02:44;;;;;;;12.82;5.45;;;6.00;99.90;;;;;;5045525;28;20040;-95
2022/03/12 08:05:10;;;;;;;13.13;6.00;;;6.20;99.90;;;;;;5039684;28;20043;-96
2022/03/12 08:07:39;;;;;;;12.43;5.53;;;6.10;99.90;;;;;;5028834;28;20452;-95
2022/03/12 08:10:06;;;;;;;13.77;5.45;;;6.30;99.90;;;;;;5047406;28;20043;-92
2022/03/12 08:12:35;;;;;;;15.55;5.63;;;6.60;99.90;;;;;;5034331;28;20070;-91
2022/03/12 08:15:05;;;;;;;16.45;5.90;;;7.70;99.90;;;;;;5037907;28;20063;-90
2022/03/12 08:17:31;;;;;;;11.88;5.63;;;6.70;99.50;;;;;;5049443;28;20045;-90
2022/03/12 08:19:58;;;;;;;10.98;5.38;;;8.60;99.90;;;;;;5019609;28;20048;-90
2022/03/12 08:22:24;;;;;;;14.02;6.07;;;6.80;99.70;;;;;;5035285;28;20094;-90
2022/03/12 08:24:50;;;;;;;11.48;5.63;;;6.90;99.20;;;;;;5052611;28;20033;-91
2022/03/12 08:27:16;;;;;;;13.40;6.22;;;7.20;99.50;;;;;;5033092;28;20059;-91
2022/03/12 08:29:44;;;;;;;12.70;5.72;;;7.20;99.70;;;;;;5029784;28;20036;-91
2022/03/12 08:32:11;;;;;;;13.77;6.10;;;7.10;99.90;;;;;;5056479;28;20041;-93
2022/03/12 08:34:37;;;;;;;11.73;5.97;;;7.20;99.90;;;;;;5032718;28;20254;-94
2022/03/12 08:37:04;;;;;;;12.18;5.88;;;7.30;99.90;;;;;;5040565;28;20063;-94
2022/03/12 08:39:31;;;;;;;14.00;6.40;;;8.10;99.60;;;;;;5038490;28;20048;-92
2022/03/12 08:41:56;;;;;;;12.38;5.88;;;9.00;99.00;;;;;;5024135;28;20069;-91
2022/03/12 08:44:38;;;;;;;;;;;;;;;;;;;;;
2022/03/12 08:47:04;;;;;;;12.30;5.88;;;7.70;97.30;;;;;;5052742;28;20074;-92
2022/03/12 08:49:30;;;;;;;11.73;5.25;;;7.90;95.90;;;;;;5032618;28;20046;-91
2022/03/12 08:51:56;;;;;;;12.82;6.10;;;9.30;94.40;;;;;;5052557;28;20505;-92
2022/03/12 08:54:21;;;;;;;11.68;5.50;;;8.20;94.00;;;;;;5007837;28;20040;-94
2022/03/12 08:56:47;;;;;;;13.05;6.15;;;9.40;92.30;;;;;;5037137;28;20032;-91
2022/03/12 08:59:13;;;;;;;13.13;5.65;;;8.50;91.00;;;;;;5036939;28;20045;-94
2022/03/12 09:01:41;;;;;;;11.90;5.55;;;8.80;90.40;;;;;;5043330;28;20493;-93
2022/03/12 09:04:07;;;;;;;12.93;6.15;;;9.40;89.40;;;;;;5046527;28;20045;-93
2022/03/12 09:06:32;;;;;;;14.30;6.03;;;8.90;85.20;;;;;;4996981;28;20044;-93
2022/03/12 09:08:58;;;;;;;11.55;6.03;;;9.00;84.10;;;;;;5031228;28;20048;-92
2022/03/12 09:11:25;;;;;;;13.85;5.63;;;9.10;85.20;;;;;;5051474;28;20043;-93
2022/03/12 09:13:51;;;;;;;15.35;6.38;;;9.20;85.60;;;;;;5055846;28;20040;-93
2022/03/12 09:16:17;;;;;;;14.05;5.82;;;9.80;85.90;;;;;;5059000;28;20405;-92
2022/03/12 09:18:46;;;;;;;11.55;5.78;;;10.20;83.20;;;;;;5022266;28;20037;-93
2022/03/12 09:21:12;;;;;;;12.50;6.35;;;9.40;81.30;;;;;;5044259;28;20033;-92
2022/03/12 09:23:38;;;;;;;13.35;6.25;;;9.40;79.70;;;;;;5032686;28;20373;-93
2022/03/12 09:26:05;;;;;;;14.30;6.20;;;9.40;80.20;;;;;;5016325;28;20119;-93
2022/03/12 09:28:31;;;;;;;12.27;6.82;;;9.60;80.80;;;;;;5056984;28;20544;-94
2022/03/12 09:30:57;;;;;;;13.20;6.20;;;9.60;80.70;;;;;;5028114;28;20044;-93
2022/03/12 09:33:23;;;;;;;16.17;6.55;;;9.70;82.10;;;;;;5037004;28;20037;-92
2022/03/12 09:35:51;;;;;;;14.80;6.03;;;9.80;81.60;;;;;;5050085;28;20036;-93
2022/03/12 09:38:17;;;;;;;12.57;6.25;;;10.30;84.40;;;;;;5042785;28;20028;-93
2022/03/12 09:40:45;;;;;;;11.75;6.05;;;9.90;85.60;;;;;;5032036;28;20037;-94
2022/03/12 09:43:11;;;;;;;11.57;6.22;;;10.00;83.50;;;;;;5031742;28;20044;-93
2022/03/12 09:45:37;;;;;;;14.10;6.30;;;10.10;83.70;;;;;;5035965;28;20032;-92
2022/03/12 09:48:03;;;;;;;16.05;7.18;;;10.30;85.00;;;;;;5038918;28;20554;-93
2022/03/12 09:50:29;;;;;;;13.13;6.53;;;10.40;85.50;;;;;;5035802;28;20048;-93
2022/03/12 09:52:55;;;;;;;14.35;7.07;;;10.60;84.80;;;;;;5038263;28;20041;-93
2022/03/12 09:55:22;;;;;;;14.45;6.72;;;10.70;87.10;;;;;;5038197;28;20497;-94
2022/03/12 09:57:48;;;;;;;11.75;5.88;;;10.90;86.80;;;;;;5055963;28;20432;-94
2022/03/12 10:00:16;;;;;;;12.10;6.57;;;11.70;85.60;;;;;;5039131;28;20490;-94
2022/03/12 10:02:43;;;;;;;15.63;6.68;;;11.20;84.40;;;;;;5047786;28;20366;-93
2022/03/12 10:05:13;;;;;;;13.55;6.47;;;11.30;84.90;;;;;;5032562;28;20048;-95
2022/03/12 10:07:41;;;;;;;12.55;6.90;;;11.40;86.10;;;;;;5038371;28;20029;-95
2022/03/12 10:10:15;;;;;;;12.20;6.55;;;11.50;90.00;;;;;;5040409;28;20048;-93
2022/03/12 10:12:42;;;;;;;12.00;6.53;;;11.50;91.50;;;;;;5040282;28;20079;-93
2022/03/12 10:15:10;;;;;;;13.25;6.55;;;11.60;92.30;;;;;;5023786;28;20158;-94
2022/03/12 10:17:36;;;;;;;13.55;6.85;;;11.70;93.50;;;;;;5048908;28;20075;-93
2022/03/12 10:20:05;;;;;;;14.25;6.75;;;11.70;94.90;;;;;;5039049;28;20051;-94
2022/03/12 10:22:32;;;;;;;13.63;6.80;;;11.80;96.30;;;;;;5018180;28;20110;-94
2022/03/12 10:24:58;;;;;;;13.55;6.88;;;11.90;97.70;;;;;;5038303;28;20123;-93
2022/03/12 10:27:23;;;;;;;11.95;6.55;;;12.00;99.30;;;;;;5018791;28;20525;-94
2022/03/12 10:29:50;;;;;;;12.60;6.68;;;12.00;99.90;;;;;;5035407;28;20126;-93
2022/03/12 10:32:31;;;;;;;12.95;6.80;;;12.00;99.90;;;;;;5041986;28;20040;-93
2022/03/12 10:34:59;;;;;;;13.10;6.32;;;12.10;99.90;;;;;;5032833;28;20097;-93
2022/03/12 10:37:31;;;;;;;13.68;6.40;;;12.10;99.90;;;;;;5016373;28;20059;-94
2022/03/12 10:40:19;;;;;;;12.88;6.72;;;12.10;99.90;;;;;;5047907;28;20037;-95
2022/03/12 10:42:50;;;;;;;12.73;6.82;;;12.10;99.90;;;;;;5044457;28;20048;-94
2022/03/12 10:45:19;;;;;;;13.45;6.90;;;12.40;99.90;;;;;;5049566;28;20044;-94
2022/03/12 10:47:51;;;;;;;12.63;7.20;;;12.10;99.90;;;;;;5039310;28;20114;-93
2022/03/12 10:50:21;;;;;;;12.37;6.73;;;12.10;99.90;;;;;;5045366;28;20065;-93
2022/03/12 10:52:52;;;;;;;12.75;6.40;;;12.10;99.90;;;;;;5032621;28;20039;-94
2022/03/12 10:55:33;;;;;;;13.25;6.70;;;12.20;99.90;;;;;;5054166;28;20500;-94
2022/03/12 10:58:05;;;;;;;13.43;7.00;;;12.30;99.90;;;;;;5037793;28;20055;-91
2022/03/12 11:00:38;;;;;;;13.45;7.10;;;12.40;99.90;;;;;;5031768;28;20063;-83
2022/03/12 11:03:05;;;;;;;;;;;12.50;99.90;;;;;;5049458;28;20117;-88
2022/03/12 11:05:34;;;;;;;13.30;6.82;;;12.60;99.90;;;;;;5035585;28;19972;-89
2022/03/12 11:08:23;;;;;;;13.20;6.80;;;12.70;99.90;;;;;;5050749;28;20036;-94
2022/03/12 11:10:59;;;;;;;12.35;6.78;;;12.80;99.90;;;;;;5048591;28;20051;-94
2022/03/12 11:13:44;;;;;;;13.55;6.65;;;12.90;99.90;;;;;;5036407;28;20051;-94
2022/03/12 11:16:12;;;;;;;13.07;6.93;;;13.00;99.90;;;;;;5056141;28;20134;-93
2022/03/12 11:18:45;;;;;;;12.63;6.65;;;13.10;99.90;;;;;;5049233;28;20041;-94
2022/03/12 11:21:11;;;;;;;12.45;6.97;;;13.10;99.90;;;;;;5032401;28;20040;-94
2022/03/12 11:23:37;;;;;;;13.70;6.97;;;13.20;99.90;;;;;;5049166;28;20043;-93
2022/03/12 11:26:07;;;;;;;14.18;7.10;;;13.30;99.90;;;;;;5030112;28;20047;-93
2022/03/12 11:28:37;;;;;;;13.95;7.57;;;13.30;99.90;;;;;;5049729;28;20040;-92
2022/03/12 11:31:06;;;;;;;12.85;7.18;;;13.40;99.90;;;;;;5025330;28;20044;-93
2022/03/12 11:33:32;;;;;;;13.48;6.82;;;13.50;99.90;;;;;;5046533;28;20045;-92
2022/03/12 11:36:09;;;;;;;12.60;7.22;;;13.50;99.90;;;;;;5037102;28;20048;-94
2022/03/12 11:38:36;;;;;;;14.10;7.50;;;13.70;99.90;;;;;;5062679;28;20184;-93
2022/03/12 11:41:20;;;;;;;13.27;7.25;;;13.80;99.90;;;;;;5045000;28;20486;-94
2022/03/12 11:43:47;;;;;;;15.57;7.55;;;13.80;99.90;;;;;;5035503;28;20092;-93
2022/03/12 11:46:14;;;;;;;13.38;7.03;;;13.80;99.90;;;;;;5036575;28;20044;-93
2022/03/12 11:48:41;;;;;;;15.82;8.02;;;13.90;99.90;;;;;;5023803;28;20048;-93
2022/03/12 11:51:23;;;;;;;14.57;7.32;;;13.80;99.90;;;;;;5030386;28;20103;-94
2022/03/12 11:53:50;;;;;;;13.23;7.22;;;13.90;99.90;;;;;;5033819;28;20485;-93
2022/03/12 11:56:17;;;;;;;14.00;7.63;;;14.00;99.90;;;;;;5038061;28;20041;-94
2022/03/12 11:58:46;;;;;;;13.32;7.00;;;14.10;99.90;;;;;;4998019;28;20075;-96
2022/03/12 12:01:20;;;;;;;12.82;7.55;;;14.20;99.90;;;;;;5046425;28;20142;-94
2022/03/12 12:03:47;;;;;;;12.77;7.43;;;14.20;99.90;;;;;;5030603;28;20036;-95
2022/03/12 12:06:14;;;;;;;16.50;7.72;;;14.10;99.90;;;;;;5005449;28;20043;-95
2022/03/12 12:08:40;;;;;;;12.60;7.10;;;14.10;99.90;;;;;;5041115;28;20105;-93
2022/03/12 12:11:06;;;;;;;13.07;7.63;;;14.10;99.90;;;;;;5022399;28;20065;-94
2022/03/12 12:13:33;;;;;;;12.77;7.03;;;14.10;99.90;;;;;;5035241;28;20047;-94
2022/03/12 12:15:58;;;;;;;13.05;7.35;;;14.10;99.90;;;;;;5010965;28;20036;-94
2022/03/12 12:18:25;;;;;;;12.70;7.30;;;14.10;99.90;;;;;;5034156;28;20029;-94
2022/03/12 12:20:50;;;;;;;12.48;7.05;;;14.30;99.90;;;;;;5050009;28;20041;-94
2022/03/12 12:23:19;;;;;;;15.20;7.40;;;15.00;99.90;;;;;;5014230;28;20040;-94
2022/03/12 12:25:45;;;;;;;12.65;7.47;;;14.50;99.90;;;;;;5047148;28;20036;-93
2022/03/12 12:28:23;;;;;;;13.20;6.80;;;14.50;99.90;;;;;;5031738;28;20041;-93
2022/03/12 12:30:53;;;;;;;11.90;7.00;;;14.60;99.90;;;;;;5054027;28;20048;-93
2022/03/12 12:33:29;;;;;;;12.82;6.70;;;14.60;99.90;;;;;;5032538;28;20147;-94
2022/03/12 12:36:15;;;;;;;12.68;6.43;;;14.70;99.90;;;;;;5049299;28;20040;-92
2022/03/12 12:39:12;;;;;;;12.00;6.97;;;14.90;99.90;;;;;;5036486;28;20048;-93
2022/03/12 12:41:58;;;;;;;14.02;6.68;;;14.90;99.90;;;;;;5041978;28;20044;-94
2022/03/12 12:44:39;;;;;;;11.85;6.40;;;14.80;99.90;;;;;;5051411;28;20034;-95
2022/03/12 12:47:07;;;;;;;12.27;6.60;;;14.80;99.90;;;;;;5035375;28;20044;-93
2022/03/12 12:49:43;;;;;;;14.30;7.10;;;14.80;99.90;;;;;;5051395;28;20043;-93
2022/03/12 12:52:12;;;;;;;11.80;6.47;;;14.80;99.90;;;;;;5046875;28;20041;-94